sensor_id;sensor_type;location;lat;lon;timestamp;pressure;altitude;pressure_sealevel;temperature
61595;BMP280;47397;48.194;11.632;2022-09-16T00:00:40;95413.03;;;14.27
61595;BMP280;47397;48.194;11.632;2022-09-16T00:01:41;95416.72;;;14.38
61595;BMP280;47397;48.194;11.632;2022-09-16T00:02:41;95419.97;;;14.42
61595;BMP280;47397;48.194;11.632;2022-09-16T00:03:42;95417.31;;;14.45
61595;BMP280;47397;48.194;11.632;2022-09-16T00:04:45;95420.03;;;14.40
61595;BMP280;47397;48.194;11.632;2022-09-16T00:05:47;95413.09;;;14.44
61595;BMP280;47397;48.194;11.632;2022-09-16T00:06:48;95415.72;;;14.43
61595;BMP280;47397;48.194;11.632;2022-09-16T00:07:48;95410.31;;;14.49
61595;BMP280;47397;48.194;11.632;2022-09-16T00:08:49;95416.16;;;14.52
61595;BMP280;47397;48.194;11.632;2022-09-16T00:09:50;95400.63;;;14.36
61595;BMP280;47397;48.194;11.632;2022-09-16T00:10:50;95405.63;;;14.21
61595;BMP280;47397;48.194;11.632;2022-09-16T00:11:51;95406.78;;;14.32
61595;BMP280;47397;48.194;11.632;2022-09-16T00:12:51;95400.16;;;14.28
61595;BMP280;47397;48.194;11.632;2022-09-16T00:13:52;95396.72;;;14.29
61595;BMP280;47397;48.194;11.632;2022-09-16T00:14:53;95397.81;;;14.24
61595;BMP280;47397;48.194;11.632;2022-09-16T00:15:54;95396.44;;;14.35
61595;BMP280;47397;48.194;11.632;2022-09-16T00:16:54;95396.78;;;14.28
61595;BMP280;47397;48.194;11.632;2022-09-16T00:17:55;95391.81;;;14.25
61595;BMP280;47397;48.194;11.632;2022-09-16T00:18:56;95392.72;;;14.24
61595;BMP280;47397;48.194;11.632;2022-09-16T00:19:58;95392.03;;;14.20
61595;BMP280;47397;48.194;11.632;2022-09-16T00:20:59;95386.63;;;14.26
61595;BMP280;47397;48.194;11.632;2022-09-16T00:22:00;95383.31;;;14.24
61595;BMP280;47397;48.194;11.632;2022-09-16T00:23:00;95389.19;;;14.26
61595;BMP280;47397;48.194;11.632;2022-09-16T00:24:01;95388.00;;;14.33
61595;BMP280;47397;48.194;11.632;2022-09-16T00:25:01;95384.63;;;14.33
61595;BMP280;47397;48.194;11.632;2022-09-16T00:26:03;95385.03;;;14.43
61595;BMP280;47397;48.194;11.632;2022-09-16T00:27:04;95381.59;;;14.44
61595;BMP280;47397;48.194;11.632;2022-09-16T00:28:04;95386.47;;;14.48
61595;BMP280;47397;48.194;11.632;2022-09-16T00:29:05;95380.53;;;14.48
61595;BMP280;47397;48.194;11.632;2022-09-16T00:30:07;95387.31;;;14.49
61595;BMP280;47397;48.194;11.632;2022-09-16T00:31:07;95381.44;;;14.47
61595;BMP280;47397;48.194;11.632;2022-09-16T00:32:08;95382.06;;;14.52
61595;BMP280;47397;48.194;11.632;2022-09-16T00:33:08;95381.25;;;14.51
61595;BMP280;47397;48.194;11.632;2022-09-16T00:34:09;95381.63;;;14.42
61595;BMP280;47397;48.194;11.632;2022-09-16T00:35:11;95381.22;;;14.32
61595;BMP280;47397;48.194;11.632;2022-09-16T00:36:13;95374.94;;;14.39
61595;BMP280;47397;48.194;11.632;2022-09-16T00:37:14;95374.84;;;14.41
61595;BMP280;47397;48.194;11.632;2022-09-16T00:38:14;95377.22;;;14.46
61595;BMP280;47397;48.194;11.632;2022-09-16T00:39:15;95377.81;;;14.15
61595;BMP280;47397;48.194;11.632;2022-09-16T00:40:16;95378.06;;;14.27
61595;BMP280;47397;48.194;11.632;2022-09-16T00:41:19;95374.94;;;14.39
61595;BMP280;47397;48.194;11.632;2022-09-16T00:42:21;95378.63;;;14.53
61595;BMP280;47397;48.194;11.632;2022-09-16T00:43:21;95373.09;;;14.43
61595;BMP280;47397;48.194;11.632;2022-09-16T00:44:52;95377.16;;;14.47
61595;BMP280;47397;48.194;11.632;2022-09-16T00:45:54;95376.31;;;14.47
61595;BMP280;47397;48.194;11.632;2022-09-16T00:46:56;95369.28;;;14.33
61595;BMP280;47397;48.194;11.632;2022-09-16T00:47:58;95382.88;;;14.33
61595;BMP280;47397;48.194;11.632;2022-09-16T00:49:02;95384.53;;;14.34
61595;BMP280;47397;48.194;11.632;2022-09-16T00:50:08;95388.81;;;14.34
61595;BMP280;47397;48.194;11.632;2022-09-16T00:51:11;95386.72;;;14.42
61595;BMP280;47397;48.194;11.632;2022-09-16T00:52:13;95394.38;;;14.44
61595;BMP280;47397;48.194;11.632;2022-09-16T00:53:17;95397.81;;;14.43
61595;BMP280;47397;48.194;11.632;2022-09-16T00:54:19;95396.34;;;14.37
61595;BMP280;47397;48.194;11.632;2022-09-16T00:55:23;95393.19;;;14.32
61595;BMP280;47397;48.194;11.632;2022-09-16T00:56:25;95393.69;;;14.21
61595;BMP280;47397;48.194;11.632;2022-09-16T00:57:27;95393.16;;;14.15
61595;BMP280;47397;48.194;11.632;2022-09-16T00:58:32;95396.47;;;14.17
61595;BMP280;47397;48.194;11.632;2022-09-16T00:59:36;95395.63;;;14.16
61595;BMP280;47397;48.194;11.632;2022-09-16T01:00:37;95386.50;;;14.11
61595;BMP280;47397;48.194;11.632;2022-09-16T01:01:38;95397.22;;;14.19
61595;BMP280;47397;48.194;11.632;2022-09-16T01:02:41;95395.13;;;14.08
61595;BMP280;47397;48.194;11.632;2022-09-16T01:03:45;95394.38;;;14.06
61595;BMP280;47397;48.194;11.632;2022-09-16T01:04:48;95396.03;;;14.07
61595;BMP280;47397;48.194;11.632;2022-09-16T01:05:51;95395.88;;;14.10
61595;BMP280;47397;48.194;11.632;2022-09-16T01:06:53;95397.34;;;14.16
61595;BMP280;47397;48.194;11.632;2022-09-16T01:07:54;95390.09;;;14.06
61595;BMP280;47397;48.194;11.632;2022-09-16T01:08:55;95395.06;;;14.09
61595;BMP280;47397;48.194;11.632;2022-09-16T01:09:56;95396.09;;;14.05
61595;BMP280;47397;48.194;11.632;2022-09-16T01:10:57;95389.94;;;14.09
61595;BMP280;47397;48.194;11.632;2022-09-16T01:11:57;95393.00;;;14.18
61595;BMP280;47397;48.194;11.632;2022-09-16T01:13:02;95386.09;;;14.20
61595;BMP280;47397;48.194;11.632;2022-09-16T01:14:04;95392.09;;;14.19
61595;BMP280;47397;48.194;11.632;2022-09-16T01:15:06;95391.19;;;14.20
61595;BMP280;47397;48.194;11.632;2022-09-16T01:16:11;95390.91;;;14.07
61595;BMP280;47397;48.194;11.632;2022-09-16T01:17:18;95392.44;;;14.11
61595;BMP280;47397;48.194;11.632;2022-09-16T01:18:24;95384.16;;;14.06
61595;BMP280;47397;48.194;11.632;2022-09-16T01:19:40;95391.75;;;13.89
61595;BMP280;47397;48.194;11.632;2022-09-16T01:21:02;95390.00;;;14.08
61595;BMP280;47397;48.194;11.632;2022-09-16T01:22:13;95380.00;;;14.03
61595;BMP280;47397;48.194;11.632;2022-09-16T01:23:40;95382.91;;;13.96
61595;BMP280;47397;48.194;11.632;2022-09-16T01:24:49;95374.34;;;13.97
61595;BMP280;47397;48.194;11.632;2022-09-16T01:26:08;95374.50;;;13.94
61595;BMP280;47397;48.194;11.632;2022-09-16T01:27:28;95378.34;;;14.02
61595;BMP280;47397;48.194;11.632;2022-09-16T01:28:41;95379.41;;;13.80
61595;BMP280;47397;48.194;11.632;2022-09-16T01:30:16;95376.34;;;13.90
61595;BMP280;47397;48.194;11.632;2022-09-16T01:31:22;95384.31;;;13.84
61595;BMP280;47397;48.194;11.632;2022-09-16T01:32:28;95379.88;;;13.88
61595;BMP280;47397;48.194;11.632;2022-09-16T01:33:38;95376.41;;;13.70
61595;BMP280;47397;48.194;11.632;2022-09-16T01:34:49;95388.97;;;13.74
61595;BMP280;47397;48.194;11.632;2022-09-16T01:36:13;95381.06;;;13.81
61595;BMP280;47397;48.194;11.632;2022-09-16T01:37:23;95378.31;;;13.85
61595;BMP280;47397;48.194;11.632;2022-09-16T01:38:35;95372.56;;;13.80
61595;BMP280;47397;48.194;11.632;2022-09-16T01:39:43;95382.47;;;13.67
61595;BMP280;47397;48.194;11.632;2022-09-16T01:40:56;95378.50;;;13.81
61595;BMP280;47397;48.194;11.632;2022-09-16T01:42:07;95379.84;;;13.69
61595;BMP280;47397;48.194;11.632;2022-09-16T01:43:18;95377.09;;;13.73
61595;BMP280;47397;48.194;11.632;2022-09-16T01:44:23;95373.72;;;13.73
61595;BMP280;47397;48.194;11.632;2022-09-16T01:45:31;95379.38;;;13.61
61595;BMP280;47397;48.194;11.632;2022-09-16T01:46:43;95373.91;;;13.68
61595;BMP280;47397;48.194;11.632;2022-09-16T01:47:50;95381.09;;;13.60
61595;BMP280;47397;48.194;11.632;2022-09-16T01:48:57;95372.00;;;13.73
61595;BMP280;47397;48.194;11.632;2022-09-16T01:50:02;95378.25;;;13.66
61595;BMP280;47397;48.194;11.632;2022-09-16T01:51:08;95381.09;;;13.60
61595;BMP280;47397;48.194;11.632;2022-09-16T01:52:19;95381.59;;;13.68
61595;BMP280;47397;48.194;11.632;2022-09-16T01:53:28;95375.03;;;13.63
61595;BMP280;47397;48.194;11.632;2022-09-16T01:54:36;95377.31;;;13.69
61595;BMP280;47397;48.194;11.632;2022-09-16T01:55:46;95375.25;;;13.77
61595;BMP280;47397;48.194;11.632;2022-09-16T01:56:52;95372.72;;;13.77
61595;BMP280;47397;48.194;11.632;2022-09-16T01:58:00;95372.50;;;13.82
61595;BMP280;47397;48.194;11.632;2022-09-16T01:59:06;95381.00;;;13.82
61595;BMP280;47397;48.194;11.632;2022-09-16T02:00:09;95378.84;;;13.92
61595;BMP280;47397;48.194;11.632;2022-09-16T02:01:15;95373.25;;;13.84
61595;BMP280;47397;48.194;11.632;2022-09-16T02:02:23;95378.38;;;13.84
61595;BMP280;47397;48.194;11.632;2022-09-16T02:03:29;95372.91;;;13.91
61595;BMP280;47397;48.194;11.632;2022-09-16T02:04:34;95370.97;;;13.96
61595;BMP280;47397;48.194;11.632;2022-09-16T02:05:38;95376.84;;;13.98
61595;BMP280;47397;48.194;11.632;2022-09-16T02:06:43;95375.31;;;13.94
61595;BMP280;47397;48.194;11.632;2022-09-16T02:07:48;95367.22;;;14.03
61595;BMP280;47397;48.194;11.632;2022-09-16T02:08:52;95368.41;;;13.96
61595;BMP280;47397;48.194;11.632;2022-09-16T02:09:56;95368.06;;;14.04
61595;BMP280;47397;48.194;11.632;2022-09-16T02:10:59;95380.69;;;14.07
61595;BMP280;47397;48.194;11.632;2022-09-16T02:12:03;95382.03;;;14.16
61595;BMP280;47397;48.194;11.632;2022-09-16T02:13:07;95381.53;;;14.07
61595;BMP280;47397;48.194;11.632;2022-09-16T02:14:12;95376.25;;;14.11
61595;BMP280;47397;48.194;11.632;2022-09-16T02:15:18;95379.63;;;14.13
61595;BMP280;47397;48.194;11.632;2022-09-16T02:16:26;95374.06;;;14.03
61595;BMP280;47397;48.194;11.632;2022-09-16T02:17:31;95379.78;;;14.08
61595;BMP280;47397;48.194;11.632;2022-09-16T02:18:35;95377.88;;;14.13
61595;BMP280;47397;48.194;11.632;2022-09-16T02:19:39;95385.59;;;14.12
61595;BMP280;47397;48.194;11.632;2022-09-16T02:20:42;95382.22;;;14.11
61595;BMP280;47397;48.194;11.632;2022-09-16T02:21:44;95388.84;;;13.96
61595;BMP280;47397;48.194;11.632;2022-09-16T02:22:48;95386.56;;;14.09
61595;BMP280;47397;48.194;11.632;2022-09-16T02:23:50;95388.22;;;14.10
61595;BMP280;47397;48.194;11.632;2022-09-16T02:24:51;95382.84;;;13.97
61595;BMP280;47397;48.194;11.632;2022-09-16T02:25:53;95385.69;;;13.91
61595;BMP280;47397;48.194;11.632;2022-09-16T02:26:57;95388.66;;;14.01
61595;BMP280;47397;48.194;11.632;2022-09-16T02:27:59;95382.78;;;13.99
61595;BMP280;47397;48.194;11.632;2022-09-16T02:29:02;95384.97;;;14.06
61595;BMP280;47397;48.194;11.632;2022-09-16T02:30:09;95387.47;;;14.08
61595;BMP280;47397;48.194;11.632;2022-09-16T02:31:11;95384.22;;;14.04
61595;BMP280;47397;48.194;11.632;2022-09-16T02:32:12;95383.31;;;14.05
61595;BMP280;47397;48.194;11.632;2022-09-16T02:33:15;95382.16;;;14.13
61595;BMP280;47397;48.194;11.632;2022-09-16T02:34:18;95384.72;;;14.13
61595;BMP280;47397;48.194;11.632;2022-09-16T02:35:21;95380.97;;;14.01
61595;BMP280;47397;48.194;11.632;2022-09-16T02:36:22;95376.69;;;14.01
61595;BMP280;47397;48.194;11.632;2022-09-16T02:37:28;95383.59;;;13.99
61595;BMP280;47397;48.194;11.632;2022-09-16T02:38:34;95385.66;;;14.10
61595;BMP280;47397;48.194;11.632;2022-09-16T02:39:37;95384.84;;;14.09
61595;BMP280;47397;48.194;11.632;2022-09-16T02:40:44;95383.88;;;14.12
61595;BMP280;47397;48.194;11.632;2022-09-16T02:41:45;95381.94;;;14.17
61595;BMP280;47397;48.194;11.632;2022-09-16T02:42:46;95380.09;;;14.21
61595;BMP280;47397;48.194;11.632;2022-09-16T02:43:46;95370.75;;;14.20
61595;BMP280;47397;48.194;11.632;2022-09-16T02:44:47;95373.09;;;14.24
61595;BMP280;47397;48.194;11.632;2022-09-16T02:45:52;95374.44;;;14.14
61595;BMP280;47397;48.194;11.632;2022-09-16T02:47:00;95377.38;;;14.05
61595;BMP280;47397;48.194;11.632;2022-09-16T02:48:08;95373.53;;;14.15
61595;BMP280;47397;48.194;11.632;2022-09-16T02:49:17;95379.41;;;14.17
61595;BMP280;47397;48.194;11.632;2022-09-16T02:50:26;95374.44;;;14.14
61595;BMP280;47397;48.194;11.632;2022-09-16T02:51:33;95374.22;;;14.19
61595;BMP280;47397;48.194;11.632;2022-09-16T02:52:38;95371.44;;;14.23
61595;BMP280;47397;48.194;11.632;2022-09-16T02:53:44;95376.09;;;14.15
61595;BMP280;47397;48.194;11.632;2022-09-16T02:54:49;95374.13;;;14.20
61595;BMP280;47397;48.194;11.632;2022-09-16T02:55:53;95370.22;;;14.13
61595;BMP280;47397;48.194;11.632;2022-09-16T02:56:55;95371.94;;;14.13
61595;BMP280;47397;48.194;11.632;2022-09-16T02:57:56;95375.31;;;14.13
61595;BMP280;47397;48.194;11.632;2022-09-16T02:58:57;95375.25;;;14.15
61595;BMP280;47397;48.194;11.632;2022-09-16T02:59:57;95373.38;;;14.18
61595;BMP280;47397;48.194;11.632;2022-09-16T03:00:58;95374.34;;;14.16
61595;BMP280;47397;48.194;11.632;2022-09-16T03:02:00;95371.88;;;14.14
61595;BMP280;47397;48.194;11.632;2022-09-16T03:03:02;95366.63;;;14.17
61595;BMP280;47397;48.194;11.632;2022-09-16T03:04:02;95376.09;;;14.15
61595;BMP280;47397;48.194;11.632;2022-09-16T03:05:05;95366.94;;;14.09
61595;BMP280;47397;48.194;11.632;2022-09-16T03:06:14;95374.06;;;14.03
61595;BMP280;47397;48.194;11.632;2022-09-16T03:07:14;95370.31;;;14.10
61595;BMP280;47397;48.194;11.632;2022-09-16T03:08:15;95366.03;;;14.11
61595;BMP280;47397;48.194;11.632;2022-09-16T03:09:16;95367.53;;;14.16
61595;BMP280;47397;48.194;11.632;2022-09-16T03:10:17;95362.19;;;14.21
61595;BMP280;47397;48.194;11.632;2022-09-16T03:11:27;95372.56;;;14.18
61595;BMP280;47397;48.194;11.632;2022-09-16T03:12:47;95368.81;;;14.25
61595;BMP280;47397;48.194;11.632;2022-09-16T03:13:53;95361.81;;;14.28
61595;BMP280;47397;48.194;11.632;2022-09-16T03:15:15;95369.72;;;14.24
61595;BMP280;47397;48.194;11.632;2022-09-16T03:16:22;95368.13;;;14.21
61595;BMP280;47397;48.194;11.632;2022-09-16T03:17:35;95365.44;;;14.24
61595;BMP280;47397;48.194;11.632;2022-09-16T03:18:50;95358.38;;;14.29
61595;BMP280;47397;48.194;11.632;2022-09-16T03:19:58;95359.72;;;14.19
61595;BMP280;47397;48.194;11.632;2022-09-16T03:21:06;95354.22;;;14.27
61595;BMP280;47397;48.194;11.632;2022-09-16T03:22:16;95356.63;;;14.30
61595;BMP280;47397;48.194;11.632;2022-09-16T03:23:25;95357.09;;;14.38
61595;BMP280;47397;48.194;11.632;2022-09-16T03:24:36;95350.91;;;14.25
61595;BMP280;47397;48.194;11.632;2022-09-16T03:25:46;95348.88;;;14.14
61595;BMP280;47397;48.194;11.632;2022-09-16T03:26:55;95351.91;;;14.22
61595;BMP280;47397;48.194;11.632;2022-09-16T03:28:01;95348.44;;;14.23
61595;BMP280;47397;48.194;11.632;2022-09-16T03:29:12;95347.59;;;14.23
61595;BMP280;47397;48.194;11.632;2022-09-16T03:30:15;95348.28;;;14.26
61595;BMP280;47397;48.194;11.632;2022-09-16T03:31:21;95346.56;;;14.27
61595;BMP280;47397;48.194;11.632;2022-09-16T03:32:29;95344.41;;;14.36
61595;BMP280;47397;48.194;11.632;2022-09-16T03:33:34;95347.94;;;14.34
61595;BMP280;47397;48.194;11.632;2022-09-16T03:34:39;95346.94;;;14.36
61595;BMP280;47397;48.194;11.632;2022-09-16T03:35:44;95347.78;;;14.37
61595;BMP280;47397;48.194;11.632;2022-09-16T03:36:50;95350.47;;;14.34
61595;BMP280;47397;48.194;11.632;2022-09-16T03:37:53;95348.59;;;14.37
61595;BMP280;47397;48.194;11.632;2022-09-16T03:38:56;95345.28;;;14.35
61595;BMP280;47397;48.194;11.632;2022-09-16T03:39:58;95348.91;;;14.31
61595;BMP280;47397;48.194;11.632;2022-09-16T03:41:02;95338.13;;;14.25
61595;BMP280;47397;48.194;11.632;2022-09-16T03:42:05;95342.56;;;14.21
61595;BMP280;47397;48.194;11.632;2022-09-16T03:43:10;95343.25;;;14.25
61595;BMP280;47397;48.194;11.632;2022-09-16T03:44:10;95346.34;;;14.31
61595;BMP280;47397;48.194;11.632;2022-09-16T03:45:14;95346.94;;;14.36
61595;BMP280;47397;48.194;11.632;2022-09-16T03:46:14;95344.69;;;14.30
61595;BMP280;47397;48.194;11.632;2022-09-16T03:47:15;95345.94;;;14.22
61595;BMP280;47397;48.194;11.632;2022-09-16T03:48:16;95339.03;;;14.24
61595;BMP280;47397;48.194;11.632;2022-09-16T03:49:16;95342.13;;;14.30
61595;BMP280;47397;48.194;11.632;2022-09-16T03:50:20;95342.06;;;14.32
61595;BMP280;47397;48.194;11.632;2022-09-16T03:51:20;95340.03;;;14.38
61595;BMP280;47397;48.194;11.632;2022-09-16T03:52:22;95339.56;;;14.30
61595;BMP280;47397;48.194;11.632;2022-09-16T03:53:23;95341.09;;;14.34
61595;BMP280;47397;48.194;11.632;2022-09-16T03:54:23;95347.56;;;14.42
61595;BMP280;47397;48.194;11.632;2022-09-16T03:55:24;95345.00;;;14.42
61595;BMP280;47397;48.194;11.632;2022-09-16T03:56:25;95342.31;;;14.45
61595;BMP280;47397;48.194;11.632;2022-09-16T03:57:25;95337.28;;;14.43
61595;BMP280;47397;48.194;11.632;2022-09-16T03:58:26;95340.88;;;14.39
61595;BMP280;47397;48.194;11.632;2022-09-16T03:59:27;95343.78;;;14.31
61595;BMP280;47397;48.194;11.632;2022-09-16T04:00:27;95344.31;;;14.38
61595;BMP280;47397;48.194;11.632;2022-09-16T04:01:28;95343.03;;;14.11
61595;BMP280;47397;48.194;11.632;2022-09-16T04:02:28;95346.56;;;14.08
61595;BMP280;47397;48.194;11.632;2022-09-16T04:03:28;95341.81;;;14.19
61595;BMP280;47397;48.194;11.632;2022-09-16T04:04:29;95335.81;;;14.20
61595;BMP280;47397;48.194;11.632;2022-09-16T04:05:29;95340.69;;;14.25
61595;BMP280;47397;48.194;11.632;2022-09-16T04:06:30;95337.53;;;14.20
61595;BMP280;47397;48.194;11.632;2022-09-16T04:07:32;95338.66;;;14.14
61595;BMP280;47397;48.194;11.632;2022-09-16T04:08:32;95336.50;;;14.24
61595;BMP280;47397;48.194;11.632;2022-09-16T04:09:33;95340.00;;;14.21
61595;BMP280;47397;48.194;11.632;2022-09-16T04:10:33;95342.44;;;14.24
61595;BMP280;47397;48.194;11.632;2022-09-16T04:11:34;95340.84;;;14.22
61595;BMP280;47397;48.194;11.632;2022-09-16T04:12:34;95344.31;;;14.21
61595;BMP280;47397;48.194;11.632;2022-09-16T04:13:35;95342.13;;;14.30
61595;BMP280;47397;48.194;11.632;2022-09-16T04:14:36;95342.97;;;14.31
61595;BMP280;47397;48.194;11.632;2022-09-16T04:15:36;95340.56;;;14.28
61595;BMP280;47397;48.194;11.632;2022-09-16T04:16:37;95346.28;;;14.33
61595;BMP280;47397;48.194;11.632;2022-09-16T04:17:37;95342.81;;;14.34
61595;BMP280;47397;48.194;11.632;2022-09-16T04:18:38;95345.44;;;14.32
61595;BMP280;47397;48.194;11.632;2022-09-16T04:19:38;95343.19;;;14.26
61595;BMP280;47397;48.194;11.632;2022-09-16T04:20:38;95336.50;;;14.24
61595;BMP280;47397;48.194;11.632;2022-09-16T04:21:39;95341.75;;;14.21
61595;BMP280;47397;48.194;11.632;2022-09-16T04:22:41;95347.53;;;14.05
61595;BMP280;47397;48.194;11.632;2022-09-16T04:23:41;95339.66;;;14.10
61595;BMP280;47397;48.194;11.632;2022-09-16T04:24:42;95344.78;;;14.10
61595;BMP280;47397;48.194;11.632;2022-09-16T04:25:42;95342.78;;;14.17
61595;BMP280;47397;48.194;11.632;2022-09-16T04:26:43;95340.78;;;14.23
61595;BMP280;47397;48.194;11.632;2022-09-16T04:27:43;95333.19;;;14.22
61595;BMP280;47397;48.194;11.632;2022-09-16T04:28:43;95334.16;;;14.19
61595;BMP280;47397;48.194;11.632;2022-09-16T04:29:44;95341.38;;;14.28
61595;BMP280;47397;48.194;11.632;2022-09-16T04:30:44;95338.97;;;14.25
61595;BMP280;47397;48.194;11.632;2022-09-16T04:31:45;95337.53;;;14.20
61595;BMP280;47397;48.194;11.632;2022-09-16T04:32:45;95338.38;;;14.20
61595;BMP280;47397;48.194;11.632;2022-09-16T04:33:46;95336.84;;;14.16
61595;BMP280;47397;48.194;11.632;2022-09-16T04:34:46;95345.81;;;14.06
61595;BMP280;47397;48.194;11.632;2022-09-16T04:35:46;95349.41;;;14.02
61595;BMP280;47397;48.194;11.632;2022-09-16T04:36:47;95349.41;;;14.02
61595;BMP280;47397;48.194;11.632;2022-09-16T04:37:49;95349.34;;;14.03
61595;BMP280;47397;48.194;11.632;2022-09-16T04:38:50;95354.47;;;14.03
61595;BMP280;47397;48.194;11.632;2022-09-16T04:39:50;95351.16;;;14.01
61595;BMP280;47397;48.194;11.632;2022-09-16T04:40:51;95347.34;;;14.10
61595;BMP280;47397;48.194;11.632;2022-09-16T04:41:51;95344.88;;;13.90
61595;BMP280;47397;48.194;11.632;2022-09-16T04:42:51;95342.94;;;13.95
61595;BMP280;47397;48.194;11.632;2022-09-16T04:43:53;95351.28;;;13.98
61595;BMP280;47397;48.194;11.632;2022-09-16T04:44:54;95351.97;;;14.02
61595;BMP280;47397;48.194;11.632;2022-09-16T04:45:54;95353.63;;;14.03
61595;BMP280;47397;48.194;11.632;2022-09-16T04:46:55;95351.97;;;14.02
61595;BMP280;47397;48.194;11.632;2022-09-16T04:47:55;95347.22;;;13.94
61595;BMP280;47397;48.194;11.632;2022-09-16T04:48:56;95351.22;;;14.00
61595;BMP280;47397;48.194;11.632;2022-09-16T04:49:56;95357.09;;;14.02
61595;BMP280;47397;48.194;11.632;2022-09-16T04:51:01;95353.78;;;14.00
61595;BMP280;47397;48.194;11.632;2022-09-16T04:52:05;95351.81;;;14.05
61595;BMP280;47397;48.194;11.632;2022-09-16T04:53:06;95357.22;;;13.99
61595;BMP280;47397;48.194;11.632;2022-09-16T04:54:07;95355.44;;;14.01
61595;BMP280;47397;48.194;11.632;2022-09-16T04:55:08;95362.72;;;14.08
61595;BMP280;47397;48.194;11.632;2022-09-16T04:56:11;95359.72;;;14.00
61595;BMP280;47397;48.194;11.632;2022-09-16T04:57:12;95361.50;;;13.98
61595;BMP280;47397;48.194;11.632;2022-09-16T04:58:13;95365.50;;;14.04
61595;BMP280;47397;48.194;11.632;2022-09-16T04:59:13;95362.88;;;14.05
61595;BMP280;47397;48.194;11.632;2022-09-16T05:00:15;95363.69;;;14.06
61595;BMP280;47397;48.194;11.632;2022-09-16T05:01:16;95368.66;;;14.09
61595;BMP280;47397;48.194;11.632;2022-09-16T05:02:17;95372.41;;;14.02
61595;BMP280;47397;48.194;11.632;2022-09-16T05:03:17;95366.63;;;13.98
61595;BMP280;47397;48.194;11.632;2022-09-16T05:04:20;95366.25;;;14.06
61595;BMP280;47397;48.194;11.632;2022-09-16T05:05:22;95368.13;;;14.02
61595;BMP280;47397;48.194;11.632;2022-09-16T05:06:24;95363.09;;;14.01
61595;BMP280;47397;48.194;11.632;2022-09-16T05:07:24;95369.56;;;14.08
61595;BMP280;47397;48.194;11.632;2022-09-16T05:08:26;95358.88;;;14.00
61595;BMP280;47397;48.194;11.632;2022-09-16T05:09:26;95361.66;;;13.95
61595;BMP280;47397;48.194;11.632;2022-09-16T05:10:27;95369.03;;;14.01
61595;BMP280;47397;48.194;11.632;2022-09-16T05:11:30;95366.81;;;13.94
61595;BMP280;47397;48.194;11.632;2022-09-16T05:12:30;95375.09;;;13.99
61595;BMP280;47397;48.194;11.632;2022-09-16T05:13:31;95367.16;;;14.05
61595;BMP280;47397;48.194;11.632;2022-09-16T05:14:32;95376.28;;;13.92
61595;BMP280;47397;48.194;11.632;2022-09-16T05:15:32;95374.75;;;14.06
61595;BMP280;47397;48.194;11.632;2022-09-16T05:16:33;95373.78;;;14.09
61595;BMP280;47397;48.194;11.632;2022-09-16T05:17:34;95374.75;;;14.06
61595;BMP280;47397;48.194;11.632;2022-09-16T05:18:35;95372.97;;;13.90
61595;BMP280;47397;48.194;11.632;2022-09-16T05:19:36;95377.06;;;13.94
61595;BMP280;47397;48.194;11.632;2022-09-16T05:20:36;95371.78;;;13.97
61595;BMP280;47397;48.194;11.632;2022-09-16T05:21:38;95374.44;;;13.95
61595;BMP280;47397;48.194;11.632;2022-09-16T05:22:39;95371.88;;;13.95
61595;BMP280;47397;48.194;11.632;2022-09-16T05:23:43;95372.06;;;13.91
61595;BMP280;47397;48.194;11.632;2022-09-16T05:24:46;95368.84;;;13.87
61595;BMP280;47397;48.194;11.632;2022-09-16T05:25:47;95372.16;;;13.89
61595;BMP280;47397;48.194;11.632;2022-09-16T05:26:47;95368.53;;;13.74
61595;BMP280;47397;48.194;11.632;2022-09-16T05:27:49;95369.94;;;13.82
61595;BMP280;47397;48.194;11.632;2022-09-16T05:28:50;95369.88;;;13.83
61595;BMP280;47397;48.194;11.632;2022-09-16T05:29:51;95366.00;;;13.93
61595;BMP280;47397;48.194;11.632;2022-09-16T05:30:51;95373.41;;;13.81
61595;BMP280;47397;48.194;11.632;2022-09-16T05:31:52;95372.06;;;13.91
61595;BMP280;47397;48.194;11.632;2022-09-16T05:32:52;95363.69;;;13.68
61595;BMP280;47397;48.194;11.632;2022-09-16T05:33:54;95371.88;;;13.76
61595;BMP280;47397;48.194;11.632;2022-09-16T05:34:55;95364.78;;;13.83
61595;BMP280;47397;48.194;11.632;2022-09-16T05:36:03;95366.81;;;13.94
61595;BMP280;47397;48.194;11.632;2022-09-16T05:37:03;95373.59;;;13.95
61595;BMP280;47397;48.194;11.632;2022-09-16T05:38:04;95367.44;;;13.99
61595;BMP280;47397;48.194;11.632;2022-09-16T05:39:09;95368.00;;;14.05
61595;BMP280;47397;48.194;11.632;2022-09-16T05:40:09;95368.34;;;13.98
61595;BMP280;47397;48.194;11.632;2022-09-16T05:41:10;95363.31;;;13.96
61595;BMP280;47397;48.194;11.632;2022-09-16T05:42:11;95370.28;;;13.93
61595;BMP280;47397;48.194;11.632;2022-09-16T05:43:12;95369.09;;;14.00
61595;BMP280;47397;48.194;11.632;2022-09-16T05:44:13;95363.09;;;14.01
61595;BMP280;47397;48.194;11.632;2022-09-16T05:45:14;95358.19;;;13.96
61595;BMP280;47397;48.194;11.632;2022-09-16T05:46:17;95358.44;;;14.09
61595;BMP280;47397;48.194;11.632;2022-09-16T05:47:17;95359.56;;;14.03
61595;BMP280;47397;48.194;11.632;2022-09-16T05:48:18;95365.38;;;14.07
61595;BMP280;47397;48.194;11.632;2022-09-16T05:49:19;95361.16;;;14.06
61595;BMP280;47397;48.194;11.632;2022-09-16T05:50:19;95358.19;;;14.15
61595;BMP280;47397;48.194;11.632;2022-09-16T05:51:22;95355.63;;;14.15
61595;BMP280;47397;48.194;11.632;2022-09-16T05:52:23;95354.66;;;14.18
61595;BMP280;47397;48.194;11.632;2022-09-16T05:53:24;95362.19;;;14.21
61595;BMP280;47397;48.194;11.632;2022-09-16T05:54:26;95356.25;;;14.20
61595;BMP280;47397;48.194;11.632;2022-09-16T05:55:27;95362.19;;;14.21
61595;BMP280;47397;48.194;11.632;2022-09-16T05:56:28;95354.44;;;14.22
61595;BMP280;47397;48.194;11.632;2022-09-16T05:57:29;95360.38;;;14.23
61595;BMP280;47397;48.194;11.632;2022-09-16T05:58:31;95361.50;;;13.98
61595;BMP280;47397;48.194;11.632;2022-09-16T05:59:32;95358.94;;;14.17
61595;BMP280;47397;48.194;11.632;2022-09-16T06:00:32;95363.31;;;14.15